sensor_id;sensor_type;location;lat;lon;timestamp;P1;durP1;ratioP1;P2;durP2;ratioP2
5225;SDS011;2632;51.666;7.146;2023-02-10T00:01:05;48.30;;;21.23;;
5225;SDS011;2632;51.666;7.146;2023-02-10T00:03:34;54.13;;;22.40;;
5225;SDS011;2632;51.666;7.146;2023-02-10T00:06:01;44.50;;;21.70;;
5225;SDS011;2632;51.666;7.146;2023-02-10T00:08:29;52.57;;;21.27;;
5225;SDS011;2632;51.666;7.146;2023-02-10T00:10:59;55.97;;;22.00;;
5225;SDS011;2632;51.666;7.146;2023-02-10T00:13:28;54.23;;;22.83;;
5225;SDS011;2632;51.666;7.146;2023-02-10T00:15:56;51.13;;;21.90;;
5225;SDS011;2632;51.666;7.146;2023-02-10T00:18:24;56.80;;;22.90;;
5225;SDS011;2632;51.666;7.146;2023-02-10T00:20:51;45.83;;;21.43;;
5225;SDS011;2632;51.666;7.146;2023-02-10T00:23:17;51.67;;;22.13;;
5225;SDS011;2632;51.666;7.146;2023-02-10T00:25:44;44.30;;;19.73;;
5225;SDS011;2632;51.666;7.146;2023-02-10T00:28:12;54.77;;;21.83;;
5225;SDS011;2632;51.666;7.146;2023-02-10T00:30:38;51.67;;;21.97;;
5225;SDS011;2632;51.666;7.146;2023-02-10T00:33:05;40.53;;;20.07;;
5225;SDS011;2632;51.666;7.146;2023-02-10T00:35:33;49.23;;;20.90;;
5225;SDS011;2632;51.666;7.146;2023-02-10T00:38:00;43.70;;;20.60;;
5225;SDS011;2632;51.666;7.146;2023-02-10T00:40:26;43.73;;;20.90;;
5225;SDS011;2632;51.666;7.146;2023-02-10T00:42:53;50.20;;;20.50;;
5225;SDS011;2632;51.666;7.146;2023-02-10T00:45:19;52.50;;;21.77;;
5225;SDS011;2632;51.666;7.146;2023-02-10T00:47:46;50.87;;;21.00;;
5225;SDS011;2632;51.666;7.146;2023-02-10T00:50:15;48.23;;;21.43;;
5225;SDS011;2632;51.666;7.146;2023-02-10T00:52:41;55.63;;;22.83;;
5225;SDS011;2632;51.666;7.146;2023-02-10T00:55:08;50.33;;;20.83;;
5225;SDS011;2632;51.666;7.146;2023-02-10T00:57:34;48.33;;;21.70;;
5225;SDS011;2632;51.666;7.146;2023-02-10T01:00:02;51.70;;;22.27;;
5225;SDS011;2632;51.666;7.146;2023-02-10T01:02:29;47.87;;;21.40;;
5225;SDS011;2632;51.666;7.146;2023-02-10T01:04:56;55.83;;;22.40;;
5225;SDS011;2632;51.666;7.146;2023-02-10T01:07:22;51.23;;;20.90;;
5225;SDS011;2632;51.666;7.146;2023-02-10T01:09:49;45.10;;;21.10;;
5225;SDS011;2632;51.666;7.146;2023-02-10T01:12:16;53.97;;;23.43;;
5225;SDS011;2632;51.666;7.146;2023-02-10T01:14:42;49.83;;;22.30;;
5225;SDS011;2632;51.666;7.146;2023-02-10T01:17:09;55.60;;;23.37;;
5225;SDS011;2632;51.666;7.146;2023-02-10T01:19:35;48.97;;;22.57;;
5225;SDS011;2632;51.666;7.146;2023-02-10T01:22:02;52.77;;;23.83;;
5225;SDS011;2632;51.666;7.146;2023-02-10T01:24:28;61.00;;;23.57;;
5225;SDS011;2632;51.666;7.146;2023-02-10T01:26:55;51.47;;;22.60;;
5225;SDS011;2632;51.666;7.146;2023-02-10T01:29:21;60.60;;;23.20;;
5225;SDS011;2632;51.666;7.146;2023-02-10T01:31:48;55.67;;;23.50;;
5225;SDS011;2632;51.666;7.146;2023-02-10T01:34:15;60.53;;;22.73;;
5225;SDS011;2632;51.666;7.146;2023-02-10T01:36:42;60.50;;;25.03;;
5225;SDS011;2632;51.666;7.146;2023-02-10T01:39:08;55.70;;;22.23;;
5225;SDS011;2632;51.666;7.146;2023-02-10T01:41:35;53.80;;;22.77;;
5225;SDS011;2632;51.666;7.146;2023-02-10T01:44:06;56.77;;;23.30;;
5225;SDS011;2632;51.666;7.146;2023-02-10T01:46:44;55.90;;;24.17;;
5225;SDS011;2632;51.666;7.146;2023-02-10T01:49:13;52.90;;;22.93;;
5225;SDS011;2632;51.666;7.146;2023-02-10T01:54:12;56.30;;;23.70;;
5225;SDS011;2632;51.666;7.146;2023-02-10T01:56:42;51.63;;;22.20;;
5225;SDS011;2632;51.666;7.146;2023-02-10T01:59:08;65.17;;;24.10;;
5225;SDS011;2632;51.666;7.146;2023-02-10T02:01:35;49.57;;;23.00;;
5225;SDS011;2632;51.666;7.146;2023-02-10T02:04:02;54.57;;;21.67;;
5225;SDS011;2632;51.666;7.146;2023-02-10T02:06:29;58.63;;;23.80;;
5225;SDS011;2632;51.666;7.146;2023-02-10T02:08:57;61.10;;;25.20;;
5225;SDS011;2632;51.666;7.146;2023-02-10T02:17:02;51.87;;;22.87;;
5225;SDS011;2632;51.666;7.146;2023-02-10T02:32:01;65.53;;;26.37;;
5225;SDS011;2632;51.666;7.146;2023-02-10T02:39:52;63.80;;;24.40;;
5225;SDS011;2632;51.666;7.146;2023-02-10T02:42:20;60.30;;;25.27;;
5225;SDS011;2632;51.666;7.146;2023-02-10T02:45:11;63.23;;;27.00;;
5225;SDS011;2632;51.666;7.146;2023-02-10T02:47:44;62.17;;;25.70;;
5225;SDS011;2632;51.666;7.146;2023-02-10T02:53:02;62.77;;;25.07;;
5225;SDS011;2632;51.666;7.146;2023-02-10T02:58:20;57.73;;;24.70;;
5225;SDS011;2632;51.666;7.146;2023-02-10T03:00:58;73.50;;;27.63;;
5225;SDS011;2632;51.666;7.146;2023-02-10T03:03:32;75.57;;;26.67;;
5225;SDS011;2632;51.666;7.146;2023-02-10T03:06:00;67.03;;;26.07;;
5225;SDS011;2632;51.666;7.146;2023-02-10T03:08:28;68.00;;;27.27;;
5225;SDS011;2632;51.666;7.146;2023-02-10T03:10:57;64.77;;;24.73;;
5225;SDS011;2632;51.666;7.146;2023-02-10T03:13:23;66.40;;;27.97;;
5225;SDS011;2632;51.666;7.146;2023-02-10T03:15:50;62.80;;;25.30;;
5225;SDS011;2632;51.666;7.146;2023-02-10T03:18:17;72.30;;;26.33;;
5225;SDS011;2632;51.666;7.146;2023-02-10T03:20:43;65.93;;;24.07;;
5225;SDS011;2632;51.666;7.146;2023-02-10T03:23:10;64.60;;;26.33;;
5225;SDS011;2632;51.666;7.146;2023-02-10T03:25:37;56.20;;;22.83;;
5225;SDS011;2632;51.666;7.146;2023-02-10T03:28:03;66.87;;;24.33;;
5225;SDS011;2632;51.666;7.146;2023-02-10T03:30:32;55.70;;;23.70;;
5225;SDS011;2632;51.666;7.146;2023-02-10T03:32:59;52.30;;;23.37;;
5225;SDS011;2632;51.666;7.146;2023-02-10T03:35:25;55.63;;;22.03;;
5225;SDS011;2632;51.666;7.146;2023-02-10T03:37:52;57.73;;;23.33;;
5225;SDS011;2632;51.666;7.146;2023-02-10T03:40:18;61.57;;;23.60;;
5225;SDS011;2632;51.666;7.146;2023-02-10T03:42:45;65.50;;;22.43;;
5225;SDS011;2632;51.666;7.146;2023-02-10T03:45:12;57.63;;;21.83;;
5225;SDS011;2632;51.666;7.146;2023-02-10T03:47:38;52.00;;;21.40;;
5225;SDS011;2632;51.666;7.146;2023-02-10T03:50:05;60.53;;;22.50;;
5225;SDS011;2632;51.666;7.146;2023-02-10T03:52:31;54.77;;;22.70;;
5225;SDS011;2632;51.666;7.146;2023-02-10T03:54:58;57.40;;;22.13;;
5225;SDS011;2632;51.666;7.146;2023-02-10T03:57:25;56.37;;;22.07;;
5225;SDS011;2632;51.666;7.146;2023-02-10T03:59:51;55.77;;;21.93;;
5225;SDS011;2632;51.666;7.146;2023-02-10T04:02:18;55.33;;;22.80;;
5225;SDS011;2632;51.666;7.146;2023-02-10T04:04:45;61.57;;;24.07;;
5225;SDS011;2632;51.666;7.146;2023-02-10T04:07:11;63.00;;;23.13;;
5225;SDS011;2632;51.666;7.146;2023-02-10T04:09:38;57.90;;;23.57;;
5225;SDS011;2632;51.666;7.146;2023-02-10T04:12:04;63.73;;;23.97;;
5225;SDS011;2632;51.666;7.146;2023-02-10T04:14:31;60.03;;;24.57;;
5225;SDS011;2632;51.666;7.146;2023-02-10T04:16:57;55.80;;;23.87;;
5225;SDS011;2632;51.666;7.146;2023-02-10T04:19:25;64.67;;;26.73;;
5225;SDS011;2632;51.666;7.146;2023-02-10T04:21:51;63.23;;;26.37;;
5225;SDS011;2632;51.666;7.146;2023-02-10T04:24:18;72.50;;;28.33;;
5225;SDS011;2632;51.666;7.146;2023-02-10T04:26:44;68.43;;;26.97;;
5225;SDS011;2632;51.666;7.146;2023-02-10T04:29:11;82.87;;;30.83;;
5225;SDS011;2632;51.666;7.146;2023-02-10T04:31:37;67.43;;;28.67;;
5225;SDS011;2632;51.666;7.146;2023-02-10T04:34:04;68.43;;;27.40;;
5225;SDS011;2632;51.666;7.146;2023-02-10T04:36:31;67.80;;;27.47;;
5225;SDS011;2632;51.666;7.146;2023-02-10T04:38:58;72.20;;;28.57;;
5225;SDS011;2632;51.666;7.146;2023-02-10T04:41:25;73.73;;;28.90;;
5225;SDS011;2632;51.666;7.146;2023-02-10T04:43:52;81.10;;;29.70;;
5225;SDS011;2632;51.666;7.146;2023-02-10T04:46:19;67.00;;;28.67;;
5225;SDS011;2632;51.666;7.146;2023-02-10T04:48:46;70.77;;;28.20;;
5225;SDS011;2632;51.666;7.146;2023-02-10T04:51:13;74.70;;;29.27;;
5225;SDS011;2632;51.666;7.146;2023-02-10T04:53:40;67.80;;;28.53;;
5225;SDS011;2632;51.666;7.146;2023-02-10T04:56:07;74.97;;;29.03;;
5225;SDS011;2632;51.666;7.146;2023-02-10T04:58:33;77.73;;;30.93;;
5225;SDS011;2632;51.666;7.146;2023-02-10T05:01:00;60.30;;;26.23;;
5225;SDS011;2632;51.666;7.146;2023-02-10T05:03:26;67.93;;;26.73;;
5225;SDS011;2632;51.666;7.146;2023-02-10T05:05:53;71.47;;;29.00;;
5225;SDS011;2632;51.666;7.146;2023-02-10T05:08:20;67.13;;;27.77;;
5225;SDS011;2632;51.666;7.146;2023-02-10T05:10:50;59.60;;;26.30;;
5225;SDS011;2632;51.666;7.146;2023-02-10T05:13:17;68.43;;;26.80;;
5225;SDS011;2632;51.666;7.146;2023-02-10T05:15:46;63.03;;;26.10;;
5225;SDS011;2632;51.666;7.146;2023-02-10T05:18:13;58.20;;;25.23;;
5225;SDS011;2632;51.666;7.146;2023-02-10T05:20:39;61.93;;;25.43;;
5225;SDS011;2632;51.666;7.146;2023-02-10T05:23:06;75.50;;;27.27;;
5225;SDS011;2632;51.666;7.146;2023-02-10T05:25:32;66.63;;;25.50;;
5225;SDS011;2632;51.666;7.146;2023-02-10T05:27:59;64.53;;;25.90;;
5225;SDS011;2632;51.666;7.146;2023-02-10T05:30:26;70.83;;;28.07;;
5225;SDS011;2632;51.666;7.146;2023-02-10T05:32:52;65.67;;;26.83;;
5225;SDS011;2632;51.666;7.146;2023-02-10T05:35:19;66.80;;;27.10;;
5225;SDS011;2632;51.666;7.146;2023-02-10T05:37:46;79.63;;;26.57;;
5225;SDS011;2632;51.666;7.146;2023-02-10T05:40:12;69.37;;;26.37;;
5225;SDS011;2632;51.666;7.146;2023-02-10T05:42:39;59.27;;;26.47;;
5225;SDS011;2632;51.666;7.146;2023-02-10T05:45:05;66.40;;;28.10;;
5225;SDS011;2632;51.666;7.146;2023-02-10T05:47:32;65.00;;;26.63;;
5225;SDS011;2632;51.666;7.146;2023-02-10T05:49:59;68.17;;;26.23;;
5225;SDS011;2632;51.666;7.146;2023-02-10T05:52:26;78.30;;;28.70;;
5225;SDS011;2632;51.666;7.146;2023-02-10T05:54:52;61.13;;;25.83;;
5225;SDS011;2632;51.666;7.146;2023-02-10T05:57:19;63.23;;;26.50;;
5225;SDS011;2632;51.666;7.146;2023-02-10T05:59:45;74.80;;;27.80;;
5225;SDS011;2632;51.666;7.146;2023-02-10T06:02:12;78.13;;;29.43;;
5225;SDS011;2632;51.666;7.146;2023-02-10T06:04:39;68.53;;;27.90;;
5225;SDS011;2632;51.666;7.146;2023-02-10T06:07:05;71.80;;;28.60;;
5225;SDS011;2632;51.666;7.146;2023-02-10T06:09:32;77.43;;;27.63;;
5225;SDS011;2632;51.666;7.146;2023-02-10T06:11:58;87.53;;;28.57;;
5225;SDS011;2632;51.666;7.146;2023-02-10T06:14:25;77.43;;;29.90;;
5225;SDS011;2632;51.666;7.146;2023-02-10T06:16:52;80.13;;;30.50;;
5225;SDS011;2632;51.666;7.146;2023-02-10T06:19:18;69.67;;;29.27;;
5225;SDS011;2632;51.666;7.146;2023-02-10T06:21:46;77.57;;;31.20;;
5225;SDS011;2632;51.666;7.146;2023-02-10T06:24:13;92.97;;;32.43;;
5225;SDS011;2632;51.666;7.146;2023-02-10T06:26:39;86.80;;;33.30;;
5225;SDS011;2632;51.666;7.146;2023-02-10T06:29:06;101.57;;;34.57;;
5225;SDS011;2632;51.666;7.146;2023-02-10T06:31:32;98.80;;;33.93;;
5225;SDS011;2632;51.666;7.146;2023-02-10T06:33:59;97.57;;;33.50;;
5225;SDS011;2632;51.666;7.146;2023-02-10T06:36:26;108.07;;;34.73;;
5225;SDS011;2632;51.666;7.146;2023-02-10T06:38:53;113.50;;;36.53;;
5225;SDS011;2632;51.666;7.146;2023-02-10T06:41:19;107.90;;;36.10;;
5225;SDS011;2632;51.666;7.146;2023-02-10T06:43:46;112.33;;;38.13;;
5225;SDS011;2632;51.666;7.146;2023-02-10T06:46:13;100.80;;;37.70;;
5225;SDS011;2632;51.666;7.146;2023-02-10T06:48:41;98.73;;;35.47;;
5225;SDS011;2632;51.666;7.146;2023-02-10T06:51:08;105.50;;;35.07;;
5225;SDS011;2632;51.666;7.146;2023-02-10T06:53:34;110.77;;;34.57;;
5225;SDS011;2632;51.666;7.146;2023-02-10T06:56:04;97.60;;;33.57;;
5225;SDS011;2632;51.666;7.146;2023-02-10T06:58:31;102.37;;;33.77;;
5225;SDS011;2632;51.666;7.146;2023-02-10T07:00:57;102.27;;;33.97;;
5225;SDS011;2632;51.666;7.146;2023-02-10T07:03:27;100.37;;;33.50;;
5225;SDS011;2632;51.666;7.146;2023-02-10T07:05:54;103.00;;;34.90;;
5225;SDS011;2632;51.666;7.146;2023-02-10T07:08:20;103.17;;;34.10;;
5225;SDS011;2632;51.666;7.146;2023-02-10T07:10:47;108.87;;;33.00;;
5225;SDS011;2632;51.666;7.146;2023-02-10T07:13:14;90.03;;;32.90;;
5225;SDS011;2632;51.666;7.146;2023-02-10T07:15:41;93.63;;;34.13;;
5225;SDS011;2632;51.666;7.146;2023-02-10T07:18:08;100.80;;;35.20;;
5225;SDS011;2632;51.666;7.146;2023-02-10T07:20:35;96.13;;;34.17;;
5225;SDS011;2632;51.666;7.146;2023-02-10T07:23:01;98.70;;;34.47;;
5225;SDS011;2632;51.666;7.146;2023-02-10T07:25:28;97.97;;;33.60;;
5225;SDS011;2632;51.666;7.146;2023-02-10T07:27:55;93.40;;;33.30;;
5225;SDS011;2632;51.666;7.146;2023-02-10T07:30:21;91.47;;;33.53;;
5225;SDS011;2632;51.666;7.146;2023-02-10T07:32:48;97.80;;;33.13;;
5225;SDS011;2632;51.666;7.146;2023-02-10T07:35:14;91.63;;;32.80;;
5225;SDS011;2632;51.666;7.146;2023-02-10T07:37:41;97.97;;;32.10;;
5225;SDS011;2632;51.666;7.146;2023-02-10T07:40:08;94.03;;;34.10;;
5225;SDS011;2632;51.666;7.146;2023-02-10T07:42:35;86.03;;;32.63;;
5225;SDS011;2632;51.666;7.146;2023-02-10T07:45:02;93.43;;;30.97;;
5225;SDS011;2632;51.666;7.146;2023-02-10T07:47:29;101.97;;;32.20;;
5225;SDS011;2632;51.666;7.146;2023-02-10T07:49:56;81.23;;;30.90;;
5225;SDS011;2632;51.666;7.146;2023-02-10T07:52:23;91.03;;;32.87;;
5225;SDS011;2632;51.666;7.146;2023-02-10T07:54:50;95.07;;;31.10;;
5225;SDS011;2632;51.666;7.146;2023-02-10T07:57:16;80.77;;;31.07;;
5225;SDS011;2632;51.666;7.146;2023-02-10T07:59:43;85.97;;;30.20;;
5225;SDS011;2632;51.666;7.146;2023-02-10T08:02:10;69.80;;;27.67;;
5225;SDS011;2632;51.666;7.146;2023-02-10T08:04:37;76.40;;;30.37;;
5225;SDS011;2632;51.666;7.146;2023-02-10T08:07:03;72.23;;;28.53;;
5225;SDS011;2632;51.666;7.146;2023-02-10T08:09:30;77.13;;;28.07;;
5225;SDS011;2632;51.666;7.146;2023-02-10T08:11:57;77.03;;;29.47;;
5225;SDS011;2632;51.666;7.146;2023-02-10T08:14:23;75.87;;;28.17;;
5225;SDS011;2632;51.666;7.146;2023-02-10T08:16:50;73.93;;;28.20;;
5225;SDS011;2632;51.666;7.146;2023-02-10T08:19:16;64.60;;;27.10;;
5225;SDS011;2632;51.666;7.146;2023-02-10T08:21:43;70.23;;;26.47;;
5225;SDS011;2632;51.666;7.146;2023-02-10T08:24:09;76.80;;;28.87;;
5225;SDS011;2632;51.666;7.146;2023-02-10T08:26:36;65.33;;;26.90;;
5225;SDS011;2632;51.666;7.146;2023-02-10T08:29:03;74.50;;;28.40;;
5225;SDS011;2632;51.666;7.146;2023-02-10T08:31:30;74.30;;;28.07;;
5225;SDS011;2632;51.666;7.146;2023-02-10T08:33:57;64.03;;;26.63;;
5225;SDS011;2632;51.666;7.146;2023-02-10T08:36:24;73.83;;;26.60;;
5225;SDS011;2632;51.666;7.146;2023-02-10T08:38:50;67.97;;;27.20;;
5225;SDS011;2632;51.666;7.146;2023-02-10T08:41:17;73.77;;;27.43;;
5225;SDS011;2632;51.666;7.146;2023-02-10T08:43:44;66.73;;;26.73;;
5225;SDS011;2632;51.666;7.146;2023-02-10T08:46:11;68.07;;;26.60;;
5225;SDS011;2632;51.666;7.146;2023-02-10T08:48:38;66.43;;;27.20;;
5225;SDS011;2632;51.666;7.146;2023-02-10T08:51:08;63.70;;;25.60;;
5225;SDS011;2632;51.666;7.146;2023-02-10T08:53:36;64.57;;;25.13;;
5225;SDS011;2632;51.666;7.146;2023-02-10T08:56:04;63.40;;;27.10;;
5225;SDS011;2632;51.666;7.146;2023-02-10T08:58:32;61.97;;;25.33;;
5225;SDS011;2632;51.666;7.146;2023-02-10T09:00:59;64.27;;;26.67;;
5225;SDS011;2632;51.666;7.146;2023-02-10T09:03:27;64.20;;;26.23;;
5225;SDS011;2632;51.666;7.146;2023-02-10T09:05:54;70.13;;;27.90;;
5225;SDS011;2632;51.666;7.146;2023-02-10T09:08:21;70.20;;;26.80;;
5225;SDS011;2632;51.666;7.146;2023-02-10T09:10:47;66.53;;;27.00;;
5225;SDS011;2632;51.666;7.146;2023-02-10T09:13:15;66.30;;;27.10;;
5225;SDS011;2632;51.666;7.146;2023-02-10T09:15:41;69.13;;;27.03;;
5225;SDS011;2632;51.666;7.146;2023-02-10T09:18:08;69.77;;;27.27;;
5225;SDS011;2632;51.666;7.146;2023-02-10T09:20:36;59.33;;;26.60;;
5225;SDS011;2632;51.666;7.146;2023-02-10T09:23:02;63.77;;;25.03;;
5225;SDS011;2632;51.666;7.146;2023-02-10T09:25:29;62.10;;;25.70;;
5225;SDS011;2632;51.666;7.146;2023-02-10T09:27:56;63.97;;;27.17;;
5225;SDS011;2632;51.666;7.146;2023-02-10T09:30:24;72.60;;;28.13;;
5225;SDS011;2632;51.666;7.146;2023-02-10T09:32:51;71.60;;;26.67;;
5225;SDS011;2632;51.666;7.146;2023-02-10T09:35:18;63.30;;;27.43;;
5225;SDS011;2632;51.666;7.146;2023-02-10T09:37:45;73.93;;;28.33;;
5225;SDS011;2632;51.666;7.146;2023-02-10T09:40:23;65.07;;;28.37;;
5225;SDS011;2632;51.666;7.146;2023-02-10T09:43:18;67.70;;;27.50;;
5225;SDS011;2632;51.666;7.146;2023-02-10T09:46:09;68.90;;;27.00;;
5225;SDS011;2632;51.666;7.146;2023-02-10T09:54:09;70.43;;;26.90;;
5225;SDS011;2632;51.666;7.146;2023-02-10T09:56:37;70.83;;;27.63;;
5225;SDS011;2632;51.666;7.146;2023-02-10T09:59:05;59.57;;;27.20;;
5225;SDS011;2632;51.666;7.146;2023-02-10T10:01:43;66.37;;;26.23;;
5225;SDS011;2632;51.666;7.146;2023-02-10T10:04:15;57.43;;;25.73;;
5225;SDS011;2632;51.666;7.146;2023-02-10T10:06:50;65.00;;;25.00;;
5225;SDS011;2632;51.666;7.146;2023-02-10T10:09:25;68.00;;;26.07;;
5225;SDS011;2632;51.666;7.146;2023-02-10T10:12:17;63.10;;;26.80;;
5225;SDS011;2632;51.666;7.146;2023-02-10T10:14:45;57.57;;;23.80;;
5225;SDS011;2632;51.666;7.146;2023-02-10T10:17:26;51.80;;;23.00;;
5225;SDS011;2632;51.666;7.146;2023-02-10T10:23:03;56.87;;;24.43;;
5225;SDS011;2632;51.666;7.146;2023-02-10T10:30:59;59.90;;;24.90;;
5225;SDS011;2632;51.666;7.146;2023-02-10T10:33:31;58.17;;;25.13;;
5225;SDS011;2632;51.666;7.146;2023-02-10T10:36:08;51.47;;;23.67;;
5225;SDS011;2632;51.666;7.146;2023-02-10T10:38:46;54.73;;;22.20;;
5225;SDS011;2632;51.666;7.146;2023-02-10T10:41:17;60.57;;;23.40;;
5225;SDS011;2632;51.666;7.146;2023-02-10T10:43:45;52.53;;;23.23;;
5225;SDS011;2632;51.666;7.146;2023-02-10T10:46:15;59.80;;;22.63;;
5225;SDS011;2632;51.666;7.146;2023-02-10T10:48:52;55.60;;;23.40;;
5225;SDS011;2632;51.666;7.146;2023-02-10T10:51:20;57.50;;;23.60;;
5225;SDS011;2632;51.666;7.146;2023-02-10T10:53:51;67.93;;;25.53;;
5225;SDS011;2632;51.666;7.146;2023-02-10T10:56:40;59.53;;;24.40;;
5225;SDS011;2632;51.666;7.146;2023-02-10T10:59:15;57.00;;;23.97;;
5225;SDS011;2632;51.666;7.146;2023-02-10T11:01:44;51.63;;;23.97;;
5225;SDS011;2632;51.666;7.146;2023-02-10T11:04:13;67.90;;;25.47;;
5225;SDS011;2632;51.666;7.146;2023-02-10T11:06:46;65.47;;;26.60;;
5225;SDS011;2632;51.666;7.146;2023-02-10T11:09:24;60.47;;;25.80;;
5225;SDS011;2632;51.666;7.146;2023-02-10T11:12:04;60.90;;;24.20;;
5225;SDS011;2632;51.666;7.146;2023-02-10T11:14:51;62.60;;;26.50;;
5225;SDS011;2632;51.666;7.146;2023-02-10T11:22:36;66.03;;;25.73;;
5225;SDS011;2632;51.666;7.146;2023-02-10T11:27:52;58.43;;;25.07;;
5225;SDS011;2632;51.666;7.146;2023-02-10T11:30:38;58.80;;;25.17;;
5225;SDS011;2632;51.666;7.146;2023-02-10T11:33:05;61.27;;;26.13;;
5225;SDS011;2632;51.666;7.146;2023-02-10T11:35:47;60.50;;;25.90;;
5225;SDS011;2632;51.666;7.146;2023-02-10T11:38:23;62.60;;;24.37;;
5225;SDS011;2632;51.666;7.146;2023-02-10T11:40:57;61.53;;;23.40;;
5225;SDS011;2632;51.666;7.146;2023-02-10T11:43:29;55.40;;;23.90;;
5225;SDS011;2632;51.666;7.146;2023-02-10T11:45:58;52.77;;;23.97;;
5225;SDS011;2632;51.666;7.146;2023-02-10T11:48:28;54.90;;;23.63;;
5225;SDS011;2632;51.666;7.146;2023-02-10T11:51:01;51.67;;;21.43;;
5225;SDS011;2632;51.666;7.146;2023-02-10T11:53:42;60.53;;;23.73;;
5225;SDS011;2632;51.666;7.146;2023-02-10T11:56:13;49.30;;;21.67;;
5225;SDS011;2632;51.666;7.146;2023-02-10T11:59:14;49.93;;;22.13;;
5225;SDS011;2632;51.666;7.146;2023-02-10T12:01:48;54.00;;;24.33;;
5225;SDS011;2632;51.666;7.146;2023-02-10T12:07:07;52.60;;;22.50;;
5225;SDS011;2632;51.666;7.146;2023-02-10T12:09:52;48.30;;;22.43;;
5225;SDS011;2632;51.666;7.146;2023-02-10T12:12:43;50.43;;;22.60;;
5225;SDS011;2632;51.666;7.146;2023-02-10T12:15:28;52.93;;;22.20;;
5225;SDS011;2632;51.666;7.146;2023-02-10T12:18:14;48.43;;;20.77;;
5225;SDS011;2632;51.666;7.146;2023-02-10T12:24:01;41.43;;;18.53;;
5225;SDS011;2632;51.666;7.146;2023-02-10T12:26:49;46.47;;;20.10;;
5225;SDS011;2632;51.666;7.146;2023-02-10T12:29:29;48.30;;;19.00;;
5225;SDS011;2632;51.666;7.146;2023-02-10T12:34:45;49.23;;;18.93;;
5225;SDS011;2632;51.666;7.146;2023-02-10T12:42:32;48.00;;;18.50;;
5225;SDS011;2632;51.666;7.146;2023-02-10T12:48:23;44.90;;;19.67;;
5225;SDS011;2632;51.666;7.146;2023-02-10T12:51:18;54.33;;;20.63;;
5225;SDS011;2632;51.666;7.146;2023-02-10T12:54:11;47.33;;;22.07;;
5225;SDS011;2632;51.666;7.146;2023-02-10T12:57:16;43.70;;;19.13;;
5225;SDS011;2632;51.666;7.146;2023-02-10T12:59:57;39.67;;;17.00;;
5225;SDS011;2632;51.666;7.146;2023-02-10T13:02:28;43.53;;;18.80;;
5225;SDS011;2632;51.666;7.146;2023-02-10T13:05:12;40.53;;;16.23;;
5225;SDS011;2632;51.666;7.146;2023-02-10T13:07:51;34.20;;;15.13;;
5225;SDS011;2632;51.666;7.146;2023-02-10T13:12:53;23.37;;;10.10;;
5225;SDS011;2632;51.666;7.146;2023-02-10T13:15:37;26.33;;;9.57;;
5225;SDS011;2632;51.666;7.146;2023-02-10T13:18:52;22.70;;;8.73;;
5225;SDS011;2632;51.666;7.146;2023-02-10T13:21:11;24.60;;;9.00;;
5225;SDS011;2632;51.666;7.146;2023-02-10T13:23:44;20.13;;;9.33;;
5225;SDS011;2632;51.666;7.146;2023-02-10T13:27:02;22.50;;;9.47;;
5225;SDS011;2632;51.666;7.146;2023-02-10T13:29:33;18.37;;;8.00;;
5225;SDS011;2632;51.666;7.146;2023-02-10T13:34:53;19.03;;;8.47;;
5225;SDS011;2632;51.666;7.146;2023-02-10T13:40:15;27.83;;;8.20;;
5225;SDS011;2632;51.666;7.146;2023-02-10T13:42:58;18.70;;;7.77;;
5225;SDS011;2632;51.666;7.146;2023-02-10T13:45:33;24.13;;;7.93;;
5225;SDS011;2632;51.666;7.146;2023-02-10T13:48:22;14.23;;;6.77;;
5225;SDS011;2632;51.666;7.146;2023-02-10T13:51:06;18.30;;;7.30;;
5225;SDS011;2632;51.666;7.146;2023-02-10T14:06:53;11.63;;;5.70;;
5225;SDS011;2632;51.666;7.146;2023-02-10T14:09:21;15.67;;;5.80;;
5225;SDS011;2632;51.666;7.146;2023-02-10T14:11:55;15.00;;;5.77;;
5225;SDS011;2632;51.666;7.146;2023-02-10T14:14:30;20.60;;;8.40;;
5225;SDS011;2632;51.666;7.146;2023-02-10T14:19:44;17.13;;;6.37;;
5225;SDS011;2632;51.666;7.146;2023-02-10T14:24:56;15.00;;;6.57;;
5225;SDS011;2632;51.666;7.146;2023-02-10T14:27:28;16.53;;;6.23;;
5225;SDS011;2632;51.666;7.146;2023-02-10T14:30:59;17.50;;;7.40;;
5225;SDS011;2632;51.666;7.146;2023-02-10T14:33:51;14.10;;;6.93;;
5225;SDS011;2632;51.666;7.146;2023-02-10T14:36:18;20.30;;;8.00;;
5225;SDS011;2632;51.666;7.146;2023-02-10T14:38:49;22.23;;;8.30;;
5225;SDS011;2632;51.666;7.146;2023-02-10T14:41:17;19.07;;;7.90;;
5225;SDS011;2632;51.666;7.146;2023-02-10T14:43:46;18.73;;;7.13;;
5225;SDS011;2632;51.666;7.146;2023-02-10T14:46:20;27.10;;;8.43;;
5225;SDS011;2632;51.666;7.146;2023-02-10T14:49:00;21.00;;;8.40;;
5225;SDS011;2632;51.666;7.146;2023-02-10T14:51:30;17.03;;;8.47;;
5225;SDS011;2632;51.666;7.146;2023-02-10T14:54:06;24.70;;;9.80;;
5225;SDS011;2632;51.666;7.146;2023-02-10T14:56:34;23.10;;;9.90;;
5225;SDS011;2632;51.666;7.146;2023-02-10T14:59:01;23.70;;;9.13;;
5225;SDS011;2632;51.666;7.146;2023-02-10T15:04:02;26.93;;;10.07;;
5225;SDS011;2632;51.666;7.146;2023-02-10T15:06:30;27.60;;;11.40;;
5225;SDS011;2632;51.666;7.146;2023-02-10T15:09:02;22.23;;;9.27;;
5225;SDS011;2632;51.666;7.146;2023-02-10T15:11:43;30.17;;;10.50;;
5225;SDS011;2632;51.666;7.146;2023-02-10T15:14:34;23.50;;;9.70;;
5225;SDS011;2632;51.666;7.146;2023-02-10T15:17:07;25.20;;;10.37;;
5225;SDS011;2632;51.666;7.146;2023-02-10T15:19:57;25.37;;;11.50;;
5225;SDS011;2632;51.666;7.146;2023-02-10T15:22:33;27.93;;;11.20;;
5225;SDS011;2632;51.666;7.146;2023-02-10T15:27:59;34.67;;;12.90;;
5225;SDS011;2632;51.666;7.146;2023-02-10T15:30:56;40.97;;;14.77;;
5225;SDS011;2632;51.666;7.146;2023-02-10T15:33:30;38.83;;;16.50;;
5225;SDS011;2632;51.666;7.146;2023-02-10T15:38:58;36.90;;;16.20;;
5225;SDS011;2632;51.666;7.146;2023-02-10T15:43:54;41.50;;;18.23;;
5225;SDS011;2632;51.666;7.146;2023-02-10T15:46:24;36.87;;;17.50;;
5225;SDS011;2632;51.666;7.146;2023-02-10T15:49:03;47.03;;;19.00;;
5225;SDS011;2632;51.666;7.146;2023-02-10T15:51:32;43.60;;;17.97;;
5225;SDS011;2632;51.666;7.146;2023-02-10T15:54:04;45.40;;;19.33;;
5225;SDS011;2632;51.666;7.146;2023-02-10T15:56:31;41.97;;;18.90;;
5225;SDS011;2632;51.666;7.146;2023-02-10T15:58:58;45.43;;;19.23;;
5225;SDS011;2632;51.666;7.146;2023-02-10T16:01:25;43.77;;;19.23;;
5225;SDS011;2632;51.666;7.146;2023-02-10T16:03:51;41.87;;;18.73;;
5225;SDS011;2632;51.666;7.146;2023-02-10T16:06:18;42.97;;;18.10;;
5225;SDS011;2632;51.666;7.146;2023-02-10T16:08:46;36.90;;;18.20;;
5225;SDS011;2632;51.666;7.146;2023-02-10T16:11:13;40.27;;;18.63;;
5225;SDS011;2632;51.666;7.146;2023-02-10T16:13:39;44.27;;;19.90;;
5225;SDS011;2632;51.666;7.146;2023-02-10T16:16:11;42.33;;;19.50;;
5225;SDS011;2632;51.666;7.146;2023-02-10T16:18:41;51.53;;;20.07;;
5225;SDS011;2632;51.666;7.146;2023-02-10T16:21:10;46.50;;;19.70;;
5225;SDS011;2632;51.666;7.146;2023-02-10T16:23:40;52.70;;;20.00;;
5225;SDS011;2632;51.666;7.146;2023-02-10T16:26:08;45.13;;;21.70;;
5225;SDS011;2632;51.666;7.146;2023-02-10T16:28:48;50.67;;;20.90;;
5225;SDS011;2632;51.666;7.146;2023-02-10T16:31:16;42.53;;;19.53;;
5225;SDS011;2632;51.666;7.146;2023-02-10T16:33:45;45.10;;;20.20;;
5225;SDS011;2632;51.666;7.146;2023-02-10T16:36:15;43.37;;;20.27;;
5225;SDS011;2632;51.666;7.146;2023-02-10T16:38:43;45.93;;;21.07;;
5225;SDS011;2632;51.666;7.146;2023-02-10T16:41:16;46.20;;;19.60;;
5225;SDS011;2632;51.666;7.146;2023-02-10T16:43:43;50.60;;;20.97;;
5225;SDS011;2632;51.666;7.146;2023-02-10T16:46:11;43.20;;;20.17;;
5225;SDS011;2632;51.666;7.146;2023-02-10T16:48:41;45.67;;;20.50;;
5225;SDS011;2632;51.666;7.146;2023-02-10T16:51:08;48.50;;;21.37;;
5225;SDS011;2632;51.666;7.146;2023-02-10T16:53:34;46.10;;;20.70;;
5225;SDS011;2632;51.666;7.146;2023-02-10T16:56:01;44.20;;;20.57;;